sensor_id;sensor_type;location;lat;lon;timestamp;temperature;humidity
59311;DHT22;45078;51.654;21.250;2022-10-22T13:34:32;13.20;99.90
59311;DHT22;45078;51.654;21.250;2022-10-22T13:36:59;13.00;99.90
59311;DHT22;45078;51.654;21.250;2022-10-22T13:39:25;13.00;99.90
59311;DHT22;45078;51.654;21.250;2022-10-22T13:41:51;13.10;99.90
59311;DHT22;45078;51.654;21.250;2022-10-22T13:44:18;13.10;99.90
59311;DHT22;45078;51.654;21.250;2022-10-22T13:46:45;13.10;99.90
59311;DHT22;45078;51.654;21.250;2022-10-22T13:49:17;13.20;99.90
59311;DHT22;45078;51.654;21.250;2022-10-22T13:51:43;13.20;99.90
59311;DHT22;45078;51.654;21.250;2022-10-22T13:54:15;13.20;99.90
59311;DHT22;45078;51.654;21.250;2022-10-22T13:56:42;13.20;99.90
59311;DHT22;45078;51.654;21.250;2022-10-22T13:59:09;13.20;99.90
59311;DHT22;45078;51.654;21.250;2022-10-22T14:01:35;13.20;99.90
59311;DHT22;45078;51.654;21.250;2022-10-22T14:04:04;13.20;99.90
59311;DHT22;45078;51.654;21.250;2022-10-22T14:06:31;13.10;99.90
59311;DHT22;45078;51.654;21.250;2022-10-22T14:09:12;13.20;99.90
59311;DHT22;45078;51.654;21.250;2022-10-22T14:11:39;13.10;99.90
59311;DHT22;45078;51.654;21.250;2022-10-22T14:14:05;13.10;99.90
59311;DHT22;45078;51.654;21.250;2022-10-22T14:16:33;13.10;99.90
59311;DHT22;45078;51.654;21.250;2022-10-22T14:19:00;13.10;99.90
59311;DHT22;45078;51.654;21.250;2022-10-22T14:21:32;13.20;99.90
59311;DHT22;45078;51.654;21.250;2022-10-22T14:23:58;13.10;99.90
59311;DHT22;45078;51.654;21.250;2022-10-22T14:26:26;13.20;99.90
59311;DHT22;45078;51.654;21.250;2022-10-22T14:28:54;13.20;99.90
59311;DHT22;45078;51.654;21.250;2022-10-22T14:31:20;13.10;99.90
59311;DHT22;45078;51.654;21.250;2022-10-22T14:33:46;13.10;99.90
59311;DHT22;45078;51.654;21.250;2022-10-22T14:36:14;13.10;99.90
59311;DHT22;45078;51.654;21.250;2022-10-22T14:38:45;13.10;99.90
59311;DHT22;45078;51.654;21.250;2022-10-22T14:41:18;13.10;99.90
59311;DHT22;45078;51.654;21.250;2022-10-22T14:43:44;13.10;99.90
59311;DHT22;45078;51.654;21.250;2022-10-22T14:46:12;13.00;99.90
59311;DHT22;45078;51.654;21.250;2022-10-22T14:48:38;12.90;99.90
59311;DHT22;45078;51.654;21.250;2022-10-22T14:51:04;12.90;99.90
59311;DHT22;45078;51.654;21.250;2022-10-22T14:53:30;13.00;99.90
59311;DHT22;45078;51.654;21.250;2022-10-22T14:55:56;13.10;99.90
59311;DHT22;45078;51.654;21.250;2022-10-22T14:58:24;13.10;99.90
59311;DHT22;45078;51.654;21.250;2022-10-22T15:00:50;13.10;99.90
59311;DHT22;45078;51.654;21.250;2022-10-22T15:03:16;13.00;99.90
59311;DHT22;45078;51.654;21.250;2022-10-22T15:05:43;13.00;99.90
59311;DHT22;45078;51.654;21.250;2022-10-22T15:08:10;13.00;99.90
59311;DHT22;45078;51.654;21.250;2022-10-22T15:10:36;13.10;99.90
59311;DHT22;45078;51.654;21.250;2022-10-22T15:13:02;13.10;99.90
59311;DHT22;45078;51.654;21.250;2022-10-22T15:15:28;13.00;99.90
59311;DHT22;45078;51.654;21.250;2022-10-22T15:17:54;13.00;99.90
59311;DHT22;45078;51.654;21.250;2022-10-22T15:20:19;12.90;99.90
59311;DHT22;45078;51.654;21.250;2022-10-22T15:22:45;13.00;99.90
59311;DHT22;45078;51.654;21.250;2022-10-22T15:25:12;12.90;99.90
59311;DHT22;45078;51.654;21.250;2022-10-22T15:27:38;12.90;99.90
59311;DHT22;45078;51.654;21.250;2022-10-22T15:30:05;12.90;99.90
59311;DHT22;45078;51.654;21.250;2022-10-22T15:32:32;12.80;99.90
59311;DHT22;45078;51.654;21.250;2022-10-22T15:34:58;12.80;99.90
59311;DHT22;45078;51.654;21.250;2022-10-22T15:37:26;12.80;99.90
59311;DHT22;45078;51.654;21.250;2022-10-22T15:39:52;12.80;99.90
59311;DHT22;45078;51.654;21.250;2022-10-22T15:42:18;12.80;99.90
59311;DHT22;45078;51.654;21.250;2022-10-22T15:44:44;12.90;99.90
59311;DHT22;45078;51.654;21.250;2022-10-22T15:47:10;12.80;99.90
59311;DHT22;45078;51.654;21.250;2022-10-22T15:49:37;12.80;99.90
59311;DHT22;45078;51.654;21.250;2022-10-22T15:52:05;12.70;99.90
59311;DHT22;45078;51.654;21.250;2022-10-22T15:54:31;12.70;99.90
59311;DHT22;45078;51.654;21.250;2022-10-22T15:56:58;12.70;99.90
59311;DHT22;45078;51.654;21.250;2022-10-22T15:59:26;12.70;99.90
59311;DHT22;45078;51.654;21.250;2022-10-22T16:01:52;12.60;99.90
59311;DHT22;45078;51.654;21.250;2022-10-22T16:04:18;12.60;99.90
59311;DHT22;45078;51.654;21.250;2022-10-22T16:06:49;12.60;99.90
59311;DHT22;45078;51.654;21.250;2022-10-22T16:09:18;12.60;99.90
59311;DHT22;45078;51.654;21.250;2022-10-22T16:11:45;12.50;99.90
59311;DHT22;45078;51.654;21.250;2022-10-22T16:14:12;12.50;99.90
59311;DHT22;45078;51.654;21.250;2022-10-22T16:16:43;12.50;99.90
59311;DHT22;45078;51.654;21.250;2022-10-22T16:19:14;12.50;99.90
59311;DHT22;45078;51.654;21.250;2022-10-22T16:21:40;12.50;99.90
59311;DHT22;45078;51.654;21.250;2022-10-22T16:24:07;12.50;99.90
59311;DHT22;45078;51.654;21.250;2022-10-22T16:26:34;12.50;99.90
59311;DHT22;45078;51.654;21.250;2022-10-22T16:29:00;12.50;99.90
59311;DHT22;45078;51.654;21.250;2022-10-22T16:31:26;12.50;99.90
59311;DHT22;45078;51.654;21.250;2022-10-22T16:33:52;12.50;99.90
59311;DHT22;45078;51.654;21.250;2022-10-22T16:36:20;12.50;99.90
59311;DHT22;45078;51.654;21.250;2022-10-22T16:38:47;12.40;99.90
59311;DHT22;45078;51.654;21.250;2022-10-22T16:41:15;12.40;99.90
59311;DHT22;45078;51.654;21.250;2022-10-22T16:43:42;12.40;99.90
59311;DHT22;45078;51.654;21.250;2022-10-22T16:46:10;12.40;99.90
59311;DHT22;45078;51.654;21.250;2022-10-22T16:48:36;12.40;99.90
59311;DHT22;45078;51.654;21.250;2022-10-22T16:51:09;12.40;99.90
59311;DHT22;45078;51.654;21.250;2022-10-22T16:53:37;12.40;99.90
59311;DHT22;45078;51.654;21.250;2022-10-22T16:56:03;12.40;99.90
59311;DHT22;45078;51.654;21.250;2022-10-22T16:58:29;12.30;99.90
59311;DHT22;45078;51.654;21.250;2022-10-22T17:00:55;12.30;99.90
59311;DHT22;45078;51.654;21.250;2022-10-22T17:03:20;12.30;99.90
59311;DHT22;45078;51.654;21.250;2022-10-22T17:05:47;12.30;99.90
59311;DHT22;45078;51.654;21.250;2022-10-22T17:08:12;12.30;99.90
59311;DHT22;45078;51.654;21.250;2022-10-22T17:10:39;12.30;99.90
59311;DHT22;45078;51.654;21.250;2022-10-22T17:13:06;12.30;99.90
59311;DHT22;45078;51.654;21.250;2022-10-22T17:15:33;12.30;99.90
59311;DHT22;45078;51.654;21.250;2022-10-22T17:18:00;12.30;99.90
59311;DHT22;45078;51.654;21.250;2022-10-22T17:20:28;12.30;99.90
59311;DHT22;45078;51.654;21.250;2022-10-22T17:22:54;12.50;99.90
59311;DHT22;45078;51.654;21.250;2022-10-22T17:25:24;12.50;99.90
59311;DHT22;45078;51.654;21.250;2022-10-22T17:27:57;12.50;99.90
59311;DHT22;45078;51.654;21.250;2022-10-22T17:30:23;12.60;99.90
59311;DHT22;45078;51.654;21.250;2022-10-22T17:32:50;12.60;99.90
59311;DHT22;45078;51.654;21.250;2022-10-22T17:35:16;12.60;99.90
59311;DHT22;45078;51.654;21.250;2022-10-22T17:37:43;12.50;99.90
59311;DHT22;45078;51.654;21.250;2022-10-22T17:40:09;12.50;99.90
59311;DHT22;45078;51.654;21.250;2022-10-22T17:42:36;12.50;99.90
59311;DHT22;45078;51.654;21.250;2022-10-22T17:45:02;12.40;99.90
59311;DHT22;45078;51.654;21.250;2022-10-22T17:47:28;12.40;99.90
59311;DHT22;45078;51.654;21.250;2022-10-22T17:49:54;12.40;99.90
59311;DHT22;45078;51.654;21.250;2022-10-22T17:52:20;12.40;99.90
59311;DHT22;45078;51.654;21.250;2022-10-22T17:54:48;12.50;99.90
59311;DHT22;45078;51.654;21.250;2022-10-22T17:57:15;12.50;99.90
59311;DHT22;45078;51.654;21.250;2022-10-22T17:59:41;12.50;99.90
59311;DHT22;45078;51.654;21.250;2022-10-22T18:02:11;12.50;99.90
59311;DHT22;45078;51.654;21.250;2022-10-22T18:04:39;12.50;99.90
59311;DHT22;45078;51.654;21.250;2022-10-22T18:07:05;12.40;99.90
59311;DHT22;45078;51.654;21.250;2022-10-22T18:09:31;12.50;99.90
59311;DHT22;45078;51.654;21.250;2022-10-22T18:11:57;12.40;99.90
59311;DHT22;45078;51.654;21.250;2022-10-22T18:14:23;12.40;99.90
59311;DHT22;45078;51.654;21.250;2022-10-22T18:16:50;12.40;99.90
59311;DHT22;45078;51.654;21.250;2022-10-22T18:19:21;12.40;99.90
59311;DHT22;45078;51.654;21.250;2022-10-22T18:21:48;12.40;99.90
59311;DHT22;45078;51.654;21.250;2022-10-22T18:24:14;12.50;99.90
59311;DHT22;45078;51.654;21.250;2022-10-22T18:26:41;12.50;99.90
59311;DHT22;45078;51.654;21.250;2022-10-22T18:29:08;12.50;99.90
59311;DHT22;45078;51.654;21.250;2022-10-22T18:31:34;12.60;99.90
59311;DHT22;45078;51.654;21.250;2022-10-22T18:34:00;12.60;99.90
59311;DHT22;45078;51.654;21.250;2022-10-22T18:36:26;12.60;99.90
59311;DHT22;45078;51.654;21.250;2022-10-22T18:38:57;12.60;99.90
59311;DHT22;45078;51.654;21.250;2022-10-22T18:41:24;12.50;99.90
59311;DHT22;45078;51.654;21.250;2022-10-22T18:43:52;12.50;99.90
59311;DHT22;45078;51.654;21.250;2022-10-22T18:46:19;12.50;99.90
59311;DHT22;45078;51.654;21.250;2022-10-22T18:48:45;12.50;99.90
59311;DHT22;45078;51.654;21.250;2022-10-22T18:51:13;12.50;99.90
59311;DHT22;45078;51.654;21.250;2022-10-22T18:53:39;12.50;99.90
59311;DHT22;45078;51.654;21.250;2022-10-22T18:56:10;12.50;99.90
59311;DHT22;45078;51.654;21.250;2022-10-22T18:58:40;12.50;99.90
59311;DHT22;45078;51.654;21.250;2022-10-22T19:01:09;12.50;99.90
59311;DHT22;45078;51.654;21.250;2022-10-22T19:03:35;12.50;99.90
59311;DHT22;45078;51.654;21.250;2022-10-22T19:06:01;12.50;99.90
59311;DHT22;45078;51.654;21.250;2022-10-22T19:08:28;12.50;99.90
59311;DHT22;45078;51.654;21.250;2022-10-22T19:10:53;12.50;99.90
59311;DHT22;45078;51.654;21.250;2022-10-22T19:13:19;12.50;99.90
59311;DHT22;45078;51.654;21.250;2022-10-22T19:15:48;12.40;99.90
59311;DHT22;45078;51.654;21.250;2022-10-22T19:18:14;12.40;99.90
59311;DHT22;45078;51.654;21.250;2022-10-22T19:20:42;12.40;99.90
59311;DHT22;45078;51.654;21.250;2022-10-22T19:23:11;12.40;99.90
59311;DHT22;45078;51.654;21.250;2022-10-22T19:25:37;12.40;99.90
59311;DHT22;45078;51.654;21.250;2022-10-22T19:28:02;12.40;99.90
59311;DHT22;45078;51.654;21.250;2022-10-22T19:30:28;12.40;99.90
59311;DHT22;45078;51.654;21.250;2022-10-22T19:32:54;12.40;99.90
59311;DHT22;45078;51.654;21.250;2022-10-22T19:35:21;12.30;99.90
59311;DHT22;45078;51.654;21.250;2022-10-22T19:37:46;12.30;99.90
59311;DHT22;45078;51.654;21.250;2022-10-22T19:40:13;12.40;99.90
59311;DHT22;45078;51.654;21.250;2022-10-22T19:42:39;12.50;99.90
59311;DHT22;45078;51.654;21.250;2022-10-22T19:45:06;12.50;99.90
59311;DHT22;45078;51.654;21.250;2022-10-22T19:47:32;12.50;99.90
59311;DHT22;45078;51.654;21.250;2022-10-22T19:49:58;12.40;99.90
59311;DHT22;45078;51.654;21.250;2022-10-22T19:52:24;12.40;99.90
59311;DHT22;45078;51.654;21.250;2022-10-22T19:54:50;12.40;99.90
59311;DHT22;45078;51.654;21.250;2022-10-22T19:57:17;12.40;99.90
59311;DHT22;45078;51.654;21.250;2022-10-22T19:59:43;12.40;99.90
59311;DHT22;45078;51.654;21.250;2022-10-22T20:02:16;12.30;99.90
59311;DHT22;45078;51.654;21.250;2022-10-22T20:04:42;12.40;99.90
59311;DHT22;45078;51.654;21.250;2022-10-22T20:07:09;12.50;99.90
59311;DHT22;45078;51.654;21.250;2022-10-22T20:09:35;12.50;99.90
59311;DHT22;45078;51.654;21.250;2022-10-22T20:12:01;12.50;99.90
59311;DHT22;45078;51.654;21.250;2022-10-22T20:14:27;12.40;99.90
59311;DHT22;45078;51.654;21.250;2022-10-22T20:16:53;12.50;99.90
59311;DHT22;45078;51.654;21.250;2022-10-22T20:19:19;12.50;99.90
59311;DHT22;45078;51.654;21.250;2022-10-22T20:21:45;12.40;99.90
59311;DHT22;45078;51.654;21.250;2022-10-22T20:24:13;12.50;99.90
59311;DHT22;45078;51.654;21.250;2022-10-22T20:26:39;12.40;99.90
59311;DHT22;45078;51.654;21.250;2022-10-22T20:29:05;12.40;99.90
59311;DHT22;45078;51.654;21.250;2022-10-22T20:31:32;12.50;99.90
59311;DHT22;45078;51.654;21.250;2022-10-22T20:33:59;12.50;99.90
59311;DHT22;45078;51.654;21.250;2022-10-22T20:36:30;12.50;99.90
59311;DHT22;45078;51.654;21.250;2022-10-22T20:39:02;12.50;99.90
59311;DHT22;45078;51.654;21.250;2022-10-22T20:41:31;12.40;99.90
59311;DHT22;45078;51.654;21.250;2022-10-22T20:43:59;12.40;99.90
59311;DHT22;45078;51.654;21.250;2022-10-22T20:46:30;12.40;99.90
59311;DHT22;45078;51.654;21.250;2022-10-22T20:49:01;12.40;99.90
59311;DHT22;45078;51.654;21.250;2022-10-22T20:51:28;12.40;99.90
59311;DHT22;45078;51.654;21.250;2022-10-22T20:53:54;12.50;99.90
59311;DHT22;45078;51.654;21.250;2022-10-22T20:56:20;12.50;99.90
59311;DHT22;45078;51.654;21.250;2022-10-22T20:58:47;12.50;99.90
59311;DHT22;45078;51.654;21.250;2022-10-22T21:01:17;12.50;99.90
59311;DHT22;45078;51.654;21.250;2022-10-22T21:03:51;12.50;99.90
59311;DHT22;45078;51.654;21.250;2022-10-22T21:06:19;12.50;99.90
59311;DHT22;45078;51.654;21.250;2022-10-22T21:08:51;12.40;99.90
59311;DHT22;45078;51.654;21.250;2022-10-22T21:11:20;12.40;99.90
59311;DHT22;45078;51.654;21.250;2022-10-22T21:13:48;12.40;99.90
59311;DHT22;45078;51.654;21.250;2022-10-22T21:16:16;12.50;99.90
59311;DHT22;45078;51.654;21.250;2022-10-22T21:18:42;12.50;99.90
59311;DHT22;45078;51.654;21.250;2022-10-22T21:21:08;12.50;99.90
59311;DHT22;45078;51.654;21.250;2022-10-22T21:23:35;12.50;99.90
59311;DHT22;45078;51.654;21.250;2022-10-22T21:26:01;12.50;99.90
59311;DHT22;45078;51.654;21.250;2022-10-22T21:28:27;12.50;99.90
59311;DHT22;45078;51.654;21.250;2022-10-22T21:30:53;12.50;99.90
59311;DHT22;45078;51.654;21.250;2022-10-22T21:33:19;12.50;99.90
59311;DHT22;45078;51.654;21.250;2022-10-22T21:35:55;12.50;99.90
59311;DHT22;45078;51.654;21.250;2022-10-22T21:38:22;12.50;99.90
59311;DHT22;45078;51.654;21.250;2022-10-22T21:40:48;12.50;99.90
59311;DHT22;45078;51.654;21.250;2022-10-22T21:43:15;12.50;99.90
59311;DHT22;45078;51.654;21.250;2022-10-22T21:45:42;12.50;99.90
59311;DHT22;45078;51.654;21.250;2022-10-22T21:48:08;12.50;99.90
59311;DHT22;45078;51.654;21.250;2022-10-22T21:50:41;12.40;99.90
59311;DHT22;45078;51.654;21.250;2022-10-22T21:53:08;12.50;99.90
59311;DHT22;45078;51.654;21.250;2022-10-22T21:55:38;12.50;99.90
59311;DHT22;45078;51.654;21.250;2022-10-22T21:58:04;12.50;99.90
59311;DHT22;45078;51.654;21.250;2022-10-22T22:00:30;12.50;99.90
59311;DHT22;45078;51.654;21.250;2022-10-22T22:02:56;12.60;99.90
59311;DHT22;45078;51.654;21.250;2022-10-22T22:07:57;12.50;99.90
59311;DHT22;45078;51.654;21.250;2022-10-22T22:10:23;12.50;99.90
59311;DHT22;45078;51.654;21.250;2022-10-22T22:12:51;12.50;99.90
59311;DHT22;45078;51.654;21.250;2022-10-22T22:15:18;12.50;99.90
59311;DHT22;45078;51.654;21.250;2022-10-22T22:17:45;12.50;99.90
59311;DHT22;45078;51.654;21.250;2022-10-22T22:20:10;12.50;99.90
59311;DHT22;45078;51.654;21.250;2022-10-22T22:22:36;12.50;99.90
59311;DHT22;45078;51.654;21.250;2022-10-22T22:25:02;12.50;99.90
59311;DHT22;45078;51.654;21.250;2022-10-22T22:27:28;12.50;99.90
59311;DHT22;45078;51.654;21.250;2022-10-22T22:29:54;12.50;99.90
59311;DHT22;45078;51.654;21.250;2022-10-22T22:32:20;12.60;99.90
59311;DHT22;45078;51.654;21.250;2022-10-22T22:34:46;12.50;99.90
59311;DHT22;45078;51.654;21.250;2022-10-22T22:37:11;12.60;99.90
59311;DHT22;45078;51.654;21.250;2022-10-22T22:39:37;12.60;99.90
59311;DHT22;45078;51.654;21.250;2022-10-22T22:42:03;12.60;99.90
59311;DHT22;45078;51.654;21.250;2022-10-22T22:44:29;12.60;99.90
59311;DHT22;45078;51.654;21.250;2022-10-22T22:46:55;12.60;99.90
59311;DHT22;45078;51.654;21.250;2022-10-22T22:49:21;12.60;99.90
59311;DHT22;45078;51.654;21.250;2022-10-22T22:51:48;12.60;99.90
59311;DHT22;45078;51.654;21.250;2022-10-22T22:54:13;12.60;99.90
59311;DHT22;45078;51.654;21.250;2022-10-22T22:56:39;12.60;99.90
59311;DHT22;45078;51.654;21.250;2022-10-22T22:59:05;12.70;99.90
59311;DHT22;45078;51.654;21.250;2022-10-22T23:01:34;12.70;99.90
59311;DHT22;45078;51.654;21.250;2022-10-22T23:04:10;12.70;99.90
59311;DHT22;45078;51.654;21.250;2022-10-22T23:06:37;12.70;99.90
59311;DHT22;45078;51.654;21.250;2022-10-22T23:09:05;12.70;99.90
59311;DHT22;45078;51.654;21.250;2022-10-22T23:11:31;12.70;99.90
59311;DHT22;45078;51.654;21.250;2022-10-22T23:13:59;12.70;99.90
59311;DHT22;45078;51.654;21.250;2022-10-22T23:16:28;12.70;99.90
59311;DHT22;45078;51.654;21.250;2022-10-22T23:18:56;12.70;99.90
59311;DHT22;45078;51.654;21.250;2022-10-22T23:21:30;12.70;99.90
59311;DHT22;45078;51.654;21.250;2022-10-22T23:23:59;12.70;99.90
59311;DHT22;45078;51.654;21.250;2022-10-22T23:26:28;12.70;99.90
59311;DHT22;45078;51.654;21.250;2022-10-22T23:28:54;12.70;99.90
59311;DHT22;45078;51.654;21.250;2022-10-22T23:31:20;12.70;99.90
59311;DHT22;45078;51.654;21.250;2022-10-22T23:33:47;12.70;99.90
59311;DHT22;45078;51.654;21.250;2022-10-22T23:36:13;12.70;99.90
59311;DHT22;45078;51.654;21.250;2022-10-22T23:38:40;12.70;99.90
59311;DHT22;45078;51.654;21.250;2022-10-22T23:41:06;12.70;99.90
59311;DHT22;45078;51.654;21.250;2022-10-22T23:43:33;12.70;99.90
59311;DHT22;45078;51.654;21.250;2022-10-22T23:46:01;12.70;99.90
59311;DHT22;45078;51.654;21.250;2022-10-22T23:48:27;12.70;99.90
59311;DHT22;45078;51.654;21.250;2022-10-22T23:50:53;12.70;99.90
59311;DHT22;45078;51.654;21.250;2022-10-22T23:53:19;12.70;99.90
59311;DHT22;45078;51.654;21.250;2022-10-22T23:55:45;12.70;99.90
59311;DHT22;45078;51.654;21.250;2022-10-22T23:58:11;12.70;99.90
